Terminal Aerodrome Forecast
Issued by NWS

Home | Current Version | Previous Version | Text Only | Print | Product List | Glossary On
Versions: 1 2 3 4 5 6 7 8 9 10 11 12 13
296
FTUS42 TJSJ 281125
TAFJMZ
TAF
TJMZ 281125Z 2812/2912 00000KT P6SM SKC
     FM281400 06005KT P6SM FEW040
     FM281700 VRB12KT P6SM VCTS SCT025CB BKN040
     FM290400 09020KT P6SM SCT030 SCT060
      AMD NOT SKED=

USA.gov is the U.S. government's official web portal to all federal, state and local government web resources and services.